Startpagina
METAR-TAF:

METAR-TAF

Vliegvelden :

Luchthaven Larnaca

Larnaca, Cyprus

breedte: 34-53N, lengte: 033-38E, hoogte: 2 m

Actueel weer

Dit bericht is 8 minuten geleden gemaakt, om 17:30 UTC
Wind 2 kt uit variabele richting
Temperatuur 17°C
Vochtigheid 77%
Druk 1016 hPa
Zicht 10 km of meer
Weinig wolken op 3000 ft

METAR: LCLK 201730Z VRB02KT 9999 FEW030 17/13 Q1016 NOSIG

Tijdstip: 19:38 (17:38 UTC)

Verwachting

Dit bericht is 6 uur en het 8 minuten geleden gemaakt, om 11:30 UTC
Verwachting geldig van 20 om 12 UTC tot 21 om 12 UTC
Wind 10 kt uit het oostzuidoosten
Zicht 10 km of meer
Weinig wolken op 2000 ft
Wijzigt naar
van 20 om 16 UTC tot 20 om 19 UTC
Wind 8 kt uit het noordwesten
Wijzigt naar
van 21 om 07 UTC tot 21 om 11 UTC
Wind 10 kt uit het oosten

TAF: LCLK 201130Z 2012/2112 12010KT 9999 FEW020 BECMG 2016/2019 32008KT BECMG 2107/2111 09010KT

Waarnemingen en weersverwachtingen van meer dan 4000 vliegvelden (METAR en TAF).

De beschikbare stations zijn de gele en rode punten op de kaart.

Ga met uw muis naar het station om de naam te zien.

Klik dan om waarnemingen en weersverwachtingen te zien.

kaart wijzigen: klik op de groene knoppen met een zwart kruis om in te zoomen, op de groene knop met een streepje om uit te zoomen of op de groene pijlen voor aangrenzende kaarten.


METAR-TAF: